METAR Data
IDs: Format: Raw Decoded Include TAF

Data at: 1620 UTC 19 Sep 2018

KW63 191615Z AUTO 00000KT 10SM CLR 28/20 A2998 RMK AO1
KW63 191555Z AUTO 28003KT 10SM CLR 27/20 A2998 RMK AO1
KW63 191535Z AUTO 00000KT 10SM CLR 27/21 A2998 RMK AO1
KW63 191515Z AUTO 28004KT 10SM CLR 27/21 A2998 RMK AO1
KW63 191455Z AUTO 00000KT 10SM CLR 26/21 A2998 RMK AO1
KW63 191435Z AUTO 31003KT 10SM CLR 26/21 A2998 RMK AO1
KW63 191415Z AUTO 33004KT 10SM CLR 25/21 A2998 RMK AO1
KW63 191355Z AUTO 32003KT 10SM CLR 23/20 A2997 RMK AO1
KW63 191335Z AUTO 30005KT 10SM CLR 23/20 A2997 RMK AO1
KW63 191315Z AUTO 31004KT 10SM CLR 22/20 A2997 RMK AO1
KW63 191255Z AUTO 31004KT 10SM CLR 21/20 A2997 RMK AO1
KW63 191235Z AUTO 10SM CLR 20/20 A2996 RMK AO1
KW63 191215Z AUTO 10SM CLR 20/20 A2996 RMK AO1
KW63 191155Z AUTO 00000KT 10SM CLR 19/19 A2996 RMK AO1
KW63 191135Z AUTO 00000KT 10SM CLR 18/18 A2995 RMK AO1
KW63 191115Z AUTO 00000KT 10SM CLR 18/18 A2994 RMK AO1
KW63 191055Z AUTO 00000KT 10SM CLR 18/18 A2994 RMK AO1
KW63 191035Z AUTO 00000KT 10SM CLR 18/18 A2993 RMK AO1
KW63 191015Z AUTO 00000KT 10SM CLR 18/18 A2993 RMK AO1
KW63 190955Z AUTO 00000KT 10SM CLR 18/18 A2992 RMK AO1
KW63 190935Z AUTO 00000KT 10SM CLR 18/18 A2992 RMK AO1
KW63 190915Z AUTO 00000KT 10SM CLR 18/18 A2991 RMK AO1
KW63 190855Z AUTO 00000KT 10SM CLR 18/18 A2991 RMK AO1
KW63 190835Z AUTO 00000KT 10SM CLR 18/18 A2991 RMK AO1
KW63 190815Z AUTO 00000KT 10SM CLR 19/19 A2991 RMK AO1
KW63 190755Z AUTO 00000KT 10SM CLR 19/19 A2991 RMK AO1
KW63 190735Z AUTO 00000KT 10SM CLR 19/19 A2991 RMK AO1
KW63 190715Z AUTO 00000KT 10SM CLR 19/19 A2991 RMK AO1
KW63 190655Z AUTO 00000KT 10SM CLR 20/20 A2991 RMK AO1
KW63 190635Z AUTO 00000KT 10SM CLR 20/20 A2991 RMK AO1
KW63 190615Z AUTO 00000KT 10SM CLR 20/20 A2991 RMK AO1
KW63 190555Z AUTO 00000KT 10SM CLR 20/20 A2991 RMK AO1
KW63 190535Z AUTO 00000KT 10SM CLR 20/20 A2991 RMK AO1
KW63 190515Z AUTO 00000KT 10SM CLR 20/20 A2991 RMK AO1
KW63 190455Z AUTO 00000KT 10SM CLR 21/21 A2991 RMK AO1
KW63 190435Z AUTO 00000KT 10SM CLR 21/21 A2991 RMK AO1
KW63 190415Z AUTO 00000KT 10SM CLR 21/21 A2991 RMK AO1
KW63 190355Z AUTO 00000KT 10SM CLR 21/21 A2990 RMK AO1
KW63 190335Z AUTO 00000KT 10SM CLR 22/22 A2990 RMK AO1
KW63 190315Z AUTO 00000KT 10SM CLR 21/21 A2990 RMK AO1
KW63 190255Z AUTO 00000KT 10SM CLR 21/21 A2989 RMK AO1
KW63 190235Z AUTO 00000KT 10SM CLR 21/21 A2989 RMK AO1
KW63 190215Z AUTO 00000KT 10SM CLR 21/21 A2989 RMK AO1
KW63 190155Z AUTO 00000KT 10SM CLR 22/22 A2989 RMK AO1
KW63 190135Z AUTO 00000KT 10SM CLR 21/21 A2989 RMK AO1
KW63 190115Z AUTO 00000KT 5SM CLR 21/21 A2988 RMK AO1
KW63 190055Z AUTO 00000KT 10SM CLR 22/22 A2988 RMK AO1
KW63 190035Z AUTO 00000KT 10SM CLR 22/22 A2987 RMK AO1
KW63 190015Z AUTO 00000KT 10SM SCT080 SCT090 BKN110 22/22 A2986 RMK AO1
KW63 182355Z AUTO 00000KT 10SM SCT070 BKN090 BKN110 23/23 A2986 RMK AO1
KW63 182335Z AUTO 00000KT 10SM OVC065 23/23 A2987 RMK AO1
KW63 182315Z AUTO 00000KT 10SM OVC065 23/23 A2986 RMK AO1
KW63 182255Z AUTO 00000KT 10SM OVC065 24/23 A2986 RMK AO1
KW63 182235Z AUTO 00000KT 10SM OVC065 25/22 A2986 RMK AO1
KW63 182215Z AUTO 28003KT 10SM OVC055 25/22 A2985 RMK AO1
KW63 182155Z AUTO 00000KT 10SM OVC055 25/22 A2985 RMK AO1
KW63 182135Z AUTO 00000KT 10SM OVC055 25/22 A2985 RMK AO1
KW63 182115Z AUTO 26003KT 10SM OVC055 25/22 A2984 RMK AO1
KW63 182055Z AUTO 24003KT 10SM OVC055 25/22 A2984 RMK AO1
KW63 182035Z AUTO 26003KT 10SM SCT041 OVC049 24/22 A2984 RMK AO1
KW63 182015Z AUTO 00000KT 10SM BKN039 OVC046 24/21 A2984 RMK AO1
KW63 181955Z AUTO 28003KT 10SM SCT022 BKN035 OVC041 24/21 A2984 RMK AO1
KW63 181935Z AUTO 31005KT 10SM SCT022 SCT027 OVC037 25/22 A2984 RMK AO1
KW63 181915Z AUTO 26004KT 10SM OVC039 25/21 A2984 RMK AO1
KW63 181835Z AUTO 25006KT 10SM OVC039 25/21 A2984 RMK AO1
KW63 181815Z AUTO 26007KT 10SM SCT041 BKN048 OVC055 26/21 A2984 RMK AO1
KW63 181755Z AUTO 26006KT 10SM BKN044 OVC055 25/21 A2985 RMK AO1
KW63 181735Z AUTO 27006KT 10SM BKN044 OVC050 26/21 A2985 RMK AO1
KW63 181715Z AUTO 25006KT 10SM SCT031 SCT039 OVC048 26/21 A2985 RMK AO1
KW63 181655Z AUTO 28007KT 230V310 10SM BKN031 BKN037 OVC048 26/21 A2985 RMK AO1
KW63 181635Z AUTO 27005KT 10SM OVC031 26/21 A2985 RMK AO1
KW63 181615Z AUTO 25007G17KT 220V300 10SM BKN031 BKN045 26/21 A2985 RMK AO1
KW63 181555Z AUTO 25009G16KT 10SM BKN031 26/21 A2985 RMK AO1
KW63 181535Z AUTO 27005G16KT 10SM SCT031 SCT050 27/21 A2985 RMK AO1
KW63 181515Z AUTO 23007KT 10SM SCT045 SCT050 26/22 A2985 RMK AO1
KW63 181455Z AUTO 24008KT 10SM OVC045 25/21 A2986 RMK AO1
KW63 181435Z AUTO 23006KT 10SM BKN046 OVC050 25/21 A2986 RMK AO1
KW63 181415Z AUTO 24006KT 10SM BKN045 OVC050 24/21 A2986 RMK AO1
KW63 181355Z AUTO 25007KT 230V290 10SM OVC050 24/22 A2985 RMK AO1
KW63 181335Z AUTO 25009G14KT 210V270 10SM BKN047 BKN055 25/22 A2985 RMK AO1
KW63 181315Z AUTO 24008G14KT 10SM SCT044 OVC049 25/22 A2984 RMK AO1
KW63 181255Z AUTO 23006KT 10SM BKN047 25/23 A2984 RMK AO1
KW63 181235Z AUTO 23005KT 10SM SCT043 24/24 A2985 RMK AO1
KW63 181215Z AUTO 22005KT 10SM SCT006 SCT010 SCT055 23/23 A2985 RMK AO1
KW63 181155Z AUTO 21006KT 10SM SCT005 22/22 A2985 RMK AO1
KW63 181135Z AUTO 21006KT 10SM SCT006 22/22 A2985 RMK AO1
KW63 181115Z AUTO 21005KT 10SM SCT006 22/22 A2985 RMK AO1
KW63 181055Z AUTO 21006KT 10SM BKN006 22/22 A2985 RMK AO1
KW63 181035Z AUTO 20005KT 10SM OVC008 22/22 A2985 RMK AO1
KW63 181015Z AUTO 20007KT 170V230 10SM OVC008 22/22 A2985 RMK AO1
KW63 180955Z AUTO 20008KT 10SM OVC008 22/22 A2985 RMK AO1
KW63 180935Z AUTO 20006KT 10SM BKN008 22/22 A2985 RMK AO1
KW63 180915Z AUTO 21006KT 10SM SCT008 22/22 A2984 RMK AO1
KW63 180855Z AUTO 19005KT 10SM SCT008 22/22 A2985 RMK AO1
KW63 180835Z AUTO 20006KT 10SM BKN008 BKN025 22/22 A2985 RMK AO1
KW63 180815Z AUTO 20006KT 160V220 10SM BKN008 BKN025 22/22 A2986 RMK AO1
KW63 180755Z AUTO 20007KT 10SM BKN008 22/22 A2986 RMK AO1
KW63 180735Z AUTO 20007KT 10SM OVC010 23/23 A2986 RMK AO1
KW63 180715Z AUTO 20007KT 10SM OVC010 23/23 A2987 RMK AO1
KW63 180655Z AUTO 20005KT 10SM BKN010 BKN043 23/23 A2987 RMK AO1
KW63 180635Z AUTO 19006KT 10SM SCT010 23/23 A2988 RMK AO1
KW63 180615Z AUTO 20007KT 10SM BKN010 23/23 A2988 RMK AO1
KW63 180555Z AUTO 19007KT 10SM OVC012 23/23 A2988 RMK AO1
KW63 180535Z AUTO 19006KT 10SM OVC014 23/23 A2989 RMK AO1
KW63 180515Z AUTO 18005KT 10SM OVC016 23/23 A2989 RMK AO1
KW63 180455Z AUTO 17003KT 10SM BKN018 BKN029 OVC035 23/23 A2989 RMK AO1
KW63 180435Z AUTO 18005KT 10SM SCT018 SCT027 SCT038 23/23 A2988 RMK AO1